Time;durP1;ratioP1;P1;durP2;ratioP2;P2;SDS_P1;SDS_P2;PMS_P1;PMS_P2;Temp;Humidity;BMP_temperature;BMP_pressure;BME280_temperature;BME280_humidity;BME280_pressure;Samples;Min_cycle;Max_cycle;Signal;HPM_P1;HPM_P2
2023/10/25 00:01:24;;;;;;;19.87;15.57;;;;;;;;;;5012410;28;20225;-52
2023/10/25 00:03:50;;;;;;;19.63;15.80;;;;;;;;;;5012373;28;20224;-52
2023/10/25 00:06:16;;;;;;;29.77;18.13;;;;;;;;;;5012578;28;20205;-52
2023/10/25 00:08:43;;;;;;;21.23;17.60;;;;;;;;;;5012365;28;20205;-52
2023/10/25 00:11:10;;;;;;;27.77;18.53;;;;;;;;;;5012062;28;20557;-52
2023/10/25 00:13:36;;;;;;;26.43;18.93;;;;;;;;;;5012069;28;20208;-52
2023/10/25 00:16:02;;;;;;;31.43;18.80;;;;;;;;;;5012263;28;20221;-52
2023/10/25 00:18:29;;;;;;;25.07;17.70;;;;;;;;;;5012168;28;20225;-52
2023/10/25 00:20:55;;;;;;;30.17;19.20;;;;;;;;;;5012043;28;20216;-51
2023/10/25 00:23:22;;;;;;;27.60;18.97;;;;;;;;;;5012137;28;20668;-52
2023/10/25 00:25:48;;;;;;;26.83;18.50;;;;;;;;;;5012088;28;20194;-52
2023/10/25 00:28:15;;;;;;;26.17;18.50;;;;;;;;;;5012029;28;20202;-52
2023/10/25 00:30:41;;;;;;;23.97;17.47;;;;;;;;;;5011870;28;20722;-52
2023/10/25 00:33:07;;;;;;;25.00;17.87;;;;;;;;;;5011767;28;20236;-52
2023/10/25 00:35:33;;;;;;;28.20;18.77;;;;;;;;;;5012054;28;20679;-52
2023/10/25 00:37:59;;;;;;;27.60;18.47;;;;;;;;;;5011931;28;20199;-52
2023/10/25 00:40:25;;;;;;;23.13;16.60;;;;;;;;;;5011869;28;20197;-51
2023/10/25 00:42:51;;;;;;;26.03;17.20;;;;;;;;;;5011563;28;20253;-52
2023/10/25 00:45:19;;;;;;;23.90;16.87;;;;;;;;;;5011868;28;20598;-51
2023/10/25 00:47:45;;;;;;;23.67;16.33;;;;;;;;;;5011899;28;20194;-52
2023/10/25 00:50:11;;;;;;;25.73;16.90;;;;;;;;;;5011582;28;20235;-52
2023/10/25 00:52:37;;;;;;;19.40;15.20;;;;;;;;;;5011657;28;20643;-52
2023/10/25 00:55:04;;;;;;;22.77;16.60;;;;;;;;;;5011665;28;20696;-52
2023/10/25 00:57:30;;;;;;;18.43;13.93;;;;;;;;;;5011799;28;20566;-52
2023/10/25 00:59:56;;;;;;;18.90;15.50;;;;;;;;;;5015392;28;20224;-52
2023/10/25 01:02:24;;;;;;;18.33;14.13;;;;;;;;;;5015797;28;20204;-52
2023/10/25 01:04:50;;;;;;;15.83;13.63;;;;;;;;;;5015803;28;20300;-52
2023/10/25 01:07:16;;;;;;;16.37;13.83;;;;;;;;;;5015832;28;20256;-52
2023/10/25 01:09:42;;;;;;;15.43;13.83;;;;;;;;;;5015446;28;20213;-52
2023/10/25 01:12:08;;;;;;;16.47;13.37;;;;;;;;;;5015404;28;20193;-51
2023/10/25 01:14:34;;;;;;;18.30;14.00;;;;;;;;;;5015491;28;20734;-52
2023/10/25 01:17:00;;;;;;;18.90;13.80;;;;;;;;;;5015407;28;20202;-52
2023/10/25 01:19:27;;;;;;;15.93;13.30;;;;;;;;;;5015392;28;20251;-52
2023/10/25 01:21:53;;;;;;;18.33;14.20;;;;;;;;;;5015221;28;20209;-52
2023/10/25 01:24:21;;;;;;;15.10;12.20;;;;;;;;;;5015288;28;20248;-52
2023/10/25 01:26:47;;;;;;;16.93;12.70;;;;;;;;;;5015536;28;20201;-52
2023/10/25 01:29:13;;;;;;;15.27;12.30;;;;;;;;;;5015035;28;20662;-50
2023/10/25 01:31:39;;;;;;;14.80;11.53;;;;;;;;;;5015206;28;20222;-50
2023/10/25 01:34:05;;;;;;;15.90;11.77;;;;;;;;;;5014974;28;20198;-50
2023/10/25 01:36:31;;;;;;;18.07;12.90;;;;;;;;;;5015339;28;20213;-50
2023/10/25 01:38:57;;;;;;;13.10;11.00;;;;;;;;;;5014913;28;20201;-49
2023/10/25 01:41:24;;;;;;;14.23;12.27;;;;;;;;;;5015136;28;20201;-50
2023/10/25 01:43:50;;;;;;;15.73;12.50;;;;;;;;;;5014716;28;20295;-50
2023/10/25 01:46:16;;;;;;;18.50;12.90;;;;;;;;;;5014962;28;20209;-50
2023/10/25 01:48:44;;;;;;;15.30;12.63;;;;;;;;;;5014930;28;20684;-50
2023/10/25 01:51:10;;;;;;;15.23;12.57;;;;;;;;;;5014636;28;20234;-50
2023/10/25 01:53:36;;;;;;;15.47;13.17;;;;;;;;;;5014861;28;20197;-50
2023/10/25 01:56:02;;;;;;;18.57;12.90;;;;;;;;;;5014779;28;20198;-50
2023/10/25 01:58:30;;;;;;;17.97;13.13;;;;;;;;;;5014687;28;20186;-49
2023/10/25 02:00:56;;;;;;;19.27;13.80;;;;;;;;;;5014568;28;20194;-49
2023/10/25 02:03:22;;;;;;;23.77;14.30;;;;;;;;;;5014662;28;20226;-52
2023/10/25 02:05:48;;;;;;;18.53;14.37;;;;;;;;;;5014683;28;20193;-52
2023/10/25 02:08:15;;;;;;;20.33;14.10;;;;;;;;;;5014522;28;20660;-52
2023/10/25 02:10:41;;;;;;;23.70;14.43;;;;;;;;;;5013384;28;20595;-50
2023/10/25 02:13:07;;;;;;;20.73;15.60;;;;;;;;;;5014291;28;20217;-49
2023/10/25 02:15:35;;;;;;;23.93;14.83;;;;;;;;;;5014603;28;20201;-52
2023/10/25 02:18:01;;;;;;;19.30;13.90;;;;;;;;;;5014373;28;20209;-52
2023/10/25 02:20:29;;;;;;;20.93;14.50;;;;;;;;;;5014448;28;20197;-50
2023/10/25 02:22:55;;;;;;;24.60;14.93;;;;;;;;;;5014241;28;20197;-49
2023/10/25 02:25:21;;;;;;;21.60;14.87;;;;;;;;;;5014242;28;20232;-49
2023/10/25 02:27:47;;;;;;;23.43;14.60;;;;;;;;;;5014443;28;20205;-49
2023/10/25 02:30:13;;;;;;;21.47;15.27;;;;;;;;;;5014127;28;20228;-49
2023/10/25 02:32:40;;;;;;;22.77;15.23;;;;;;;;;;5013917;28;20227;-49
2023/10/25 02:35:07;;;;;;;19.53;14.90;;;;;;;;;;5014043;28;20205;-49
2023/10/25 02:37:33;;;;;;;18.93;13.50;;;;;;;;;;5014140;28;20209;-52
2023/10/25 02:39:59;;;;;;;23.13;14.00;;;;;;;;;;5013976;28;20197;-52
2023/10/25 02:42:25;;;;;;;24.47;14.80;;;;;;;;;;5013838;28;20567;-50
2023/10/25 02:44:51;;;;;;;18.57;13.80;;;;;;;;;;5013904;28;20606;-49
2023/10/25 02:47:17;;;;;;;19.30;13.27;;;;;;;;;;5013815;28;20256;-49
2023/10/25 02:49:44;;;;;;;21.23;13.57;;;;;;;;;;5013764;28;20229;-50
2023/10/25 02:52:10;;;;;;;17.23;12.80;;;;;;;;;;5013494;28;20318;-49
2023/10/25 02:54:36;;;;;;;19.00;13.50;;;;;;;;;;5013655;28;20204;-49
2023/10/25 02:57:02;;;;;;;18.57;13.27;;;;;;;;;;5013589;28;20198;-49
2023/10/25 02:59:28;;;;;;;20.83;12.93;;;;;;;;;;5013623;28;20212;-49
2023/10/25 03:01:54;;;;;;;19.57;12.57;;;;;;;;;;5013556;28;20202;-50
2023/10/25 03:04:20;;;;;;;18.50;11.93;;;;;;;;;;5013457;28;20605;-49
2023/10/25 03:06:47;;;;;;;19.23;12.53;;;;;;;;;;5013606;28;20240;-49
2023/10/25 03:09:13;;;;;;;16.80;12.50;;;;;;;;;;5013279;28;20307;-49
2023/10/25 03:11:39;;;;;;;17.87;12.33;;;;;;;;;;5013261;28;20722;-50
2023/10/25 03:14:06;;;;;;;17.50;11.80;;;;;;;;;;5013246;28;20201;-50
2023/10/25 03:16:32;;;;;;;15.27;11.17;;;;;;;;;;5013263;28;20601;-50
2023/10/25 03:18:58;;;;;;;17.73;12.17;;;;;;;;;;5013284;28;20233;-50
2023/10/25 03:21:24;;;;;;;16.57;11.47;;;;;;;;;;5012906;28;20258;-50
2023/10/25 03:23:51;;;;;;;13.13;10.40;;;;;;;;;;5013175;28;20193;-50
2023/10/25 03:26:17;;;;;;;15.57;11.73;;;;;;;;;;5013285;28;20197;-50
2023/10/25 03:28:43;;;;;;;19.07;11.87;;;;;;;;;;5013036;28;20225;-50
2023/10/25 03:31:09;;;;;;;13.90;10.20;;;;;;;;;;5012719;28;20241;-50
2023/10/25 03:33:36;;;;;;;16.70;11.27;;;;;;;;;;5013001;28;20197;-50
2023/10/25 03:36:02;;;;;;;14.77;10.70;;;;;;;;;;5012954;28;20224;-49
2023/10/25 03:38:28;;;;;;;15.40;11.50;;;;;;;;;;5012774;28;20296;-49
2023/10/25 03:41:03;;;;;;;15.93;10.53;;;;;;;;;;5012776;28;20268;-50
2023/10/25 03:43:29;;;;;;;12.13;9.83;;;;;;;;;;5012653;28;20303;-49
2023/10/25 03:45:55;;;;;;;13.93;9.40;;;;;;;;;;5012720;28;20652;-50
2023/10/25 03:48:21;;;;;;;11.17;8.30;;;;;;;;;;5012728;28;20320;-50
2023/10/25 03:50:47;;;;;;;8.73;7.80;;;;;;;;;;5012730;28;20227;-50
2023/10/25 03:53:13;;;;;;;9.37;7.70;;;;;;;;;;5012515;28;20193;-50
2023/10/25 03:55:39;;;;;;;11.60;7.63;;;;;;;;;;5012492;28;20291;-50
2023/10/25 03:58:07;;;;;;;8.83;7.17;;;;;;;;;;5012665;28;20225;-50
2023/10/25 04:00:33;;;;;;;8.13;7.20;;;;;;;;;;5012533;28;20201;-50
2023/10/25 04:02:59;;;;;;;8.60;6.93;;;;;;;;;;5012647;28;20221;-50
2023/10/25 04:05:25;;;;;;;8.47;6.53;;;;;;;;;;5012273;28;20849;-50
2023/10/25 04:07:51;;;;;;;12.33;7.30;;;;;;;;;;5012250;28;20599;-50
2023/10/25 04:10:18;;;;;;;8.83;6.60;;;;;;;;;;5012363;28;20267;-50
2023/10/25 04:12:44;;;;;;;8.33;7.37;;;;;;;;;;5012187;28;20232;-50
2023/10/25 04:15:11;;;;;;;8.73;7.13;;;;;;;;;;5012201;28;20514;-50
2023/10/25 04:17:37;;;;;;;11.80;7.90;;;;;;;;;;5012089;28;20232;-50
2023/10/25 04:20:03;;;;;;;10.43;7.83;;;;;;;;;;5012145;28;20292;-50
2023/10/25 04:22:29;;;;;;;9.77;8.03;;;;;;;;;;5012100;28;20200;-49
2023/10/25 04:24:57;;;;;;;10.70;8.07;;;;;;;;;;5011976;28;20201;-49
2023/10/25 04:27:23;;;;;;;9.83;6.60;;;;;;;;;;5011764;28;20217;-49
2023/10/25 04:29:49;;;;;;;7.07;6.37;;;;;;;;;;5011987;28;20635;-50
2023/10/25 04:32:16;;;;;;;9.23;6.63;;;;;;;;;;5011786;28;20209;-50
2023/10/25 04:34:42;;;;;;;8.67;6.37;;;;;;;;;;5011687;28;20208;-50
2023/10/25 04:37:08;;;;;;;7.40;6.20;;;;;;;;;;5011858;28;20292;-50
2023/10/25 04:39:34;;;;;;;6.97;6.00;;;;;;;;;;5012000;28;20198;-50
2023/10/25 04:42:00;;;;;;;6.90;5.80;;;;;;;;;;5011832;28;20727;-50
2023/10/25 04:44:27;;;;;;;10.07;6.93;;;;;;;;;;5011740;28;20205;-50
2023/10/25 04:46:53;;;;;;;6.93;6.20;;;;;;;;;;5011792;28;20742;-50
2023/10/25 04:49:20;;;;;;;10.67;7.07;;;;;;;;;;5011666;28;20686;-50
2023/10/25 04:51:47;;;;;;;10.07;6.97;;;;;;;;;;5011989;28;20235;-50
2023/10/25 04:54:12;;;;;;;8.53;7.50;;;;;;;;;;5011678;28;20240;-50
2023/10/25 04:56:38;;;;;;;11.33;7.17;;;;;;;;;;5011630;28;20221;-50
2023/10/25 04:59:05;;;;;;;9.60;7.30;;;;;;;;;;5011750;28;20747;-50
2023/10/25 05:01:31;;;;;;;11.03;7.50;;;;;;;;;;5011826;28;20224;-50
2023/10/25 05:03:57;;;;;;;8.10;7.30;;;;;;;;;;5011687;28;20619;-50
2023/10/25 05:06:24;;;;;;;6.90;6.20;;;;;;;;;;5011576;28;20284;-50
2023/10/25 05:08:51;;;;;;;8.77;7.07;;;;;;;;;;5011560;28;20212;-50
2023/10/25 05:11:17;;;;;;;8.57;6.23;;;;;;;;;;5009677;28;20225;-50
2023/10/25 05:13:43;;;;;;;9.27;7.00;;;;;;;;;;4995251;28;20595;-49
2023/10/25 05:16:10;;;;;;;9.17;6.63;;;;;;;;;;4998139;28;20194;-49
2023/10/25 05:18:36;;;;;;;8.07;6.80;;;;;;;;;;4997927;28;20193;-49
2023/10/25 05:21:03;;;;;;;6.77;5.73;;;;;;;;;;4998157;28;20193;-49
2023/10/25 05:23:31;;;;;;;6.90;5.67;;;;;;;;;;4997880;28;20205;-49
2023/10/25 05:25:58;;;;;;;7.73;5.33;;;;;;;;;;4996215;28;20210;-49
2023/10/25 05:28:24;;;;;;;5.10;4.60;;;;;;;;;;4999310;28;20443;-50
2023/10/25 05:30:50;;;;;;;5.23;4.80;;;;;;;;;;4997709;28;20239;-49
2023/10/25 05:33:18;;;;;;;5.07;4.57;;;;;;;;;;4997735;28;20220;-49
2023/10/25 05:35:44;;;;;;;5.50;4.93;;;;;;;;;;4997867;28;20202;-49
2023/10/25 05:38:10;;;;;;;5.43;4.37;;;;;;;;;;4997729;28;20568;-49
2023/10/25 05:40:38;;;;;;;5.57;5.07;;;;;;;;;;4997677;28;20202;-49
2023/10/25 05:43:06;;;;;;;6.83;5.00;;;;;;;;;;4997695;28;20724;-49
2023/10/25 05:45:32;;;;;;;5.27;4.60;;;;;;;;;;5000485;28;20201;-49
2023/10/25 05:47:58;;;;;;;5.07;4.57;;;;;;;;;;5000715;28;20194;-49
2023/10/25 05:50:24;;;;;;;5.53;5.03;;;;;;;;;;5001304;28;20241;-49
2023/10/25 05:52:51;;;;;;;6.00;4.53;;;;;;;;;;5001331;28;20240;-49
2023/10/25 05:55:17;;;;;;;7.63;4.37;;;;;;;;;;4999733;28;20579;-50
2023/10/25 05:57:48;;;;;;;5.67;4.40;;;;;;;;;;5001036;28;20519;-50
2023/10/25 06:00:14;;;;;;;6.00;4.80;;;;;;;;;;5001252;28;20200;-49
2023/10/25 06:02:43;;;;;;;4.87;4.37;;;;;;;;;;4999421;28;20202;-50
2023/10/25 06:05:11;;;;;;;4.73;4.27;;;;;;;;;;5001078;28;20219;-50
2023/10/25 06:07:38;;;;;;;21.03;7.13;;;;;;;;;;5001127;28;20208;-50
2023/10/25 06:10:04;;;;;;;22.00;7.37;;;;;;;;;;5000978;28;20232;-50
2023/10/25 06:12:30;;;;;;;17.37;6.73;;;;;;;;;;5000678;28;20204;-50
2023/10/25 06:14:58;;;;;;;9.57;6.20;;;;;;;;;;5000264;28;20213;-50
2023/10/25 06:17:24;;;;;;;7.77;6.57;;;;;;;;;;5000070;28;20450;-50
2023/10/25 06:19:52;;;;;;;7.13;5.70;;;;;;;;;;5000587;28;20197;-50
2023/10/25 06:22:18;;;;;;;6.63;6.03;;;;;;;;;;5000799;28;20277;-50
2023/10/25 06:24:44;;;;;;;9.23;6.20;;;;;;;;;;5000972;28;20252;-50
2023/10/25 06:27:10;;;;;;;8.73;6.70;;;;;;;;;;4998700;28;20201;-50
2023/10/25 06:29:36;;;;;;;9.20;7.90;;;;;;;;;;5000482;28;20730;-50
2023/10/25 06:32:05;;;;;;;10.47;8.83;;;;;;;;;;5000735;28;20229;-50
2023/10/25 06:34:31;;;;;;;10.13;8.50;;;;;;;;;;5000564;28;20202;-50
2023/10/25 06:36:57;;;;;;;9.80;7.30;;;;;;;;;;5000499;28;20200;-50
2023/10/25 06:39:23;;;;;;;9.27;7.83;;;;;;;;;;4998694;28;20197;-49
2023/10/25 06:41:50;;;;;;;9.97;7.37;;;;;;;;;;5000359;28;20193;-49
2023/10/25 06:44:16;;;;;;;7.33;6.63;;;;;;;;;;5000636;28;20206;-50
2023/10/25 06:46:42;;;;;;;9.40;7.40;;;;;;;;;;5000190;28;20730;-49
2023/10/25 06:49:10;;;;;;;8.23;7.43;;;;;;;;;;5000292;28;20198;-49
2023/10/25 06:51:36;;;;;;;9.90;8.10;;;;;;;;;;4999876;28;20725;-49
2023/10/25 06:54:03;;;;;;;12.20;8.43;;;;;;;;;;5000484;28;20194;-49
2023/10/25 06:56:29;;;;;;;12.90;8.27;;;;;;;;;;4999429;28;20664;-50
2023/10/25 06:58:55;;;;;;;12.80;7.87;;;;;;;;;;5000045;28;20664;-50
2023/10/25 07:01:24;;;;;;;11.73;8.47;;;;;;;;;;5000036;28;20193;-50
2023/10/25 07:03:50;;;;;;;8.40;7.50;;;;;;;;;;5000215;28;20208;-50
2023/10/25 07:06:18;;;;;;;9.30;8.40;;;;;;;;;;5000132;28;20244;-50
2023/10/25 07:08:44;;;;;;;8.97;8.07;;;;;;;;;;5000255;28;20289;-50
2023/10/25 07:11:10;;;;;;;9.13;8.00;;;;;;;;;;4999661;28;20225;-50
2023/10/25 07:13:36;;;;;;;11.07;9.07;;;;;;;;;;4997913;28;20311;-50
2023/10/25 07:16:03;;;;;;;11.03;9.20;;;;;;;;;;4999916;28;20211;-50
2023/10/25 07:18:29;;;;;;;9.40;8.40;;;;;;;;;;4999744;28;20309;-50
2023/10/25 07:20:55;;;;;;;11.03;9.53;;;;;;;;;;4999756;28;20431;-50
2023/10/25 07:23:22;;;;;;;12.97;9.53;;;;;;;;;;4999574;28;20208;-50
2023/10/25 07:25:48;;;;;;;11.67;9.47;;;;;;;;;;4997895;28;20209;-50
2023/10/25 07:28:14;;;;;;;9.40;8.50;;;;;;;;;;5008235;28;20206;-50
2023/10/25 07:30:40;;;;;;;11.97;9.77;;;;;;;;;;5012791;28;20244;-49
2023/10/25 07:33:07;;;;;;;13.13;9.60;;;;;;;;;;5012894;28;20224;-51
2023/10/25 07:35:33;;;;;;;12.67;9.23;;;;;;;;;;5013023;28;20208;-50
2023/10/25 07:37:59;;;;;;;9.30;7.63;;;;;;;;;;5013071;28;20268;-51
2023/10/25 07:40:26;;;;;;;12.43;8.80;;;;;;;;;;5012870;28;20309;-50
2023/10/25 07:42:52;;;;;;;12.50;8.70;;;;;;;;;;5012649;28;20291;-50
2023/10/25 07:45:18;;;;;;;12.57;8.57;;;;;;;;;;5012601;28;20201;-50
2023/10/25 07:47:44;;;;;;;8.87;7.97;;;;;;;;;;5012621;28;20240;-50
2023/10/25 07:50:10;;;;;;;8.40;7.60;;;;;;;;;;5012505;28;20264;-50
2023/10/25 07:52:36;;;;;;;8.87;6.80;;;;;;;;;;5012371;28;20213;-50
2023/10/25 07:55:03;;;;;;;8.63;7.07;;;;;;;;;;5012688;28;20201;-50
2023/10/25 07:57:31;;;;;;;7.83;6.60;;;;;;;;;;5012522;28;20198;-50
2023/10/25 07:59:58;;;;;;;8.27;6.80;;;;;;;;;;5012383;28;20738;-50
2023/10/25 08:02:24;;;;;;;6.43;5.83;;;;;;;;;;5012440;28;20206;-50
2023/10/25 08:04:50;;;;;;;6.67;5.20;;;;;;;;;;5012307;28;20221;-50
2023/10/25 08:07:16;;;;;;;7.03;5.43;;;;;;;;;;5012106;28;20232;-50
2023/10/25 08:09:44;;;;;;;6.40;4.93;;;;;;;;;;5011775;28;20662;-50
2023/10/25 08:12:10;;;;;;;5.83;4.50;;;;;;;;;;5012184;28;20237;-51
2023/10/25 08:14:38;;;;;;;4.80;4.10;;;;;;;;;;5011979;28;20232;-52
2023/10/25 08:17:04;;;;;;;6.27;4.43;;;;;;;;;;5012337;28;20344;-51
2023/10/25 08:19:31;;;;;;;5.10;4.33;;;;;;;;;;5012209;28;20193;-51
2023/10/25 08:21:57;;;;;;;6.27;3.83;;;;;;;;;;5012158;28;20204;-51
2023/10/25 08:24:26;;;;;;;5.40;4.10;;;;;;;;;;5012118;28;20233;-51
2023/10/25 08:26:55;;;;;;;6.63;3.87;;;;;;;;;;5012062;28;20197;-51
2023/10/25 08:29:21;;;;;;;5.97;4.03;;;;;;;;;;5011906;28;20692;-51
2023/10/25 08:31:49;;;;;;;5.17;4.17;;;;;;;;;;5011824;28;20268;-51
2023/10/25 08:34:15;;;;;;;4.50;3.90;;;;;;;;;;5011811;28;20621;-51
2023/10/25 08:36:41;;;;;;;4.90;3.70;;;;;;;;;;5011692;28;20205;-50
2023/10/25 08:39:07;;;;;;;4.70;3.93;;;;;;;;;;5011738;28;20645;-51
2023/10/25 08:41:35;;;;;;;4.80;4.00;;;;;;;;;;5011656;28;20195;-51
2023/10/25 08:44:03;;;;;;;5.93;3.60;;;;;;;;;;5011807;28;20237;-51
2023/10/25 08:46:31;;;;;;;4.87;3.57;;;;;;;;;;5011666;28;20197;-50
2023/10/25 08:48:58;;;;;;;4.40;3.30;;;;;;;;;;5011977;28;20664;-51
2023/10/25 08:51:25;;;;;;;3.40;3.10;;;;;;;;;;5011513;28;20229;-51
2023/10/25 08:53:53;;;;;;;3.73;3.30;;;;;;;;;;5011496;28;20201;-51
2023/10/25 08:56:19;;;;;;;5.23;3.70;;;;;;;;;;5011564;28;20209;-51
2023/10/25 08:58:45;;;;;;;4.50;3.23;;;;;;;;;;5011675;28;20281;-51
2023/10/25 09:01:11;;;;;;;3.83;3.10;;;;;;;;;;5011602;28;20195;-51
2023/10/25 09:03:41;;;;;;;5.07;3.43;;;;;;;;;;5011434;28;20259;-51
2023/10/25 09:06:09;;;;;;;4.60;3.83;;;;;;;;;;5011502;28;20594;-51
2023/10/25 09:08:35;;;;;;;6.13;3.67;;;;;;;;;;5011324;28;20245;-51
2023/10/25 09:11:02;;;;;;;5.00;3.63;;;;;;;;;;5011558;28;20569;-51
2023/10/25 09:13:28;;;;;;;3.93;3.53;;;;;;;;;;5011611;28;20206;-51
2023/10/25 09:16:02;;;;;;;4.23;3.57;;;;;;;;;;5011328;28;20209;-51
2023/10/25 09:18:28;;;;;;;4.23;3.20;;;;;;;;;;5011250;28;20198;-51
2023/10/25 09:20:54;;;;;;;5.47;2.90;;;;;;;;;;5015092;28;20265;-51
2023/10/25 09:23:22;;;;;;;4.23;3.10;;;;;;;;;;5015330;28;20207;-51
2023/10/25 09:25:49;;;;;;;4.20;2.93;;;;;;;;;;5015192;28;20227;-51
2023/10/25 09:28:16;;;;;;;3.57;2.93;;;;;;;;;;5015239;28;20208;-51
2023/10/25 09:30:42;;;;;;;5.03;3.53;;;;;;;;;;5015013;28;20229;-51
2023/10/25 09:33:09;;;;;;;4.67;2.90;;;;;;;;;;5015248;28;20222;-51
2023/10/25 09:35:36;;;;;;;3.63;3.30;;;;;;;;;;5015235;28;20197;-51
2023/10/25 09:38:03;;;;;;;6.97;2.97;;;;;;;;;;5015173;28;20247;-51
2023/10/25 09:40:30;;;;;;;3.20;2.90;;;;;;;;;;5014911;28;20204;-51
2023/10/25 09:42:59;;;;;;;6.73;3.43;;;;;;;;;;5014802;28;20241;-51
2023/10/25 09:45:28;;;;;;;3.10;2.80;;;;;;;;;;5015119;28;20194;-51
2023/10/25 09:47:56;;;;;;;4.20;3.20;;;;;;;;;;5014859;28;20201;-51
2023/10/25 09:50:33;;;;;;;3.80;3.40;;;;;;;;;;5014757;28;20666;-51
2023/10/25 09:53:02;;;;;;;6.47;3.93;;;;;;;;;;5014877;28;20189;-51
2023/10/25 09:55:31;;;;;;;4.10;3.50;;;;;;;;;;5014786;28;20197;-51
2023/10/25 09:57:59;;;;;;;4.20;3.90;;;;;;;;;;5014766;28;20299;-51
2023/10/25 10:00:25;;;;;;;4.90;3.80;;;;;;;;;;5014946;28;20779;-51
2023/10/25 10:02:54;;;;;;;5.13;4.03;;;;;;;;;;5014917;28;20214;-51
2023/10/25 10:05:24;;;;;;;5.30;4.50;;;;;;;;;;5014710;28;20200;-52
2023/10/25 10:07:54;;;;;;;5.63;4.07;;;;;;;;;;5014525;28;20284;-51
2023/10/25 10:10:22;;;;;;;7.27;5.40;;;;;;;;;;5014364;28;20321;-50
2023/10/25 10:12:48;;;;;;;5.83;4.97;;;;;;;;;;5014621;28;20312;-50
2023/10/25 10:15:16;;;;;;;4.80;4.40;;;;;;;;;;5014642;28;20248;-51
2023/10/25 10:17:45;;;;;;;7.60;5.07;;;;;;;;;;5014149;28;20206;-51
2023/10/25 10:20:24;;;;;;;5.60;5.03;;;;;;;;;;5014313;28;20248;-51
2023/10/25 10:23:02;;;;;;;6.47;5.43;;;;;;;;;;5014148;28;20202;-51
2023/10/25 10:25:52;;;;;;;6.40;5.90;;;;;;;;;;5014109;28;20197;-51
2023/10/25 10:28:36;;;;;;;6.97;6.10;;;;;;;;;;5010383;28;20205;-53
2023/10/25 10:31:03;;;;;;;6.40;5.80;;;;;;;;;;5013121;28;20237;-51
2023/10/25 10:33:29;;;;;;;8.20;5.60;;;;;;;;;;5014134;28;20239;-51
2023/10/25 10:35:59;;;;;;;5.90;5.17;;;;;;;;;;5013673;28;20193;-51
2023/10/25 10:38:25;;;;;;;5.70;5.10;;;;;;;;;;5013966;28;20577;-51
2023/10/25 10:40:51;;;;;;;8.03;5.40;;;;;;;;;;5013901;28;20194;-51
2023/10/25 10:43:20;;;;;;;7.83;5.10;;;;;;;;;;5013907;28;20264;-51
2023/10/25 10:45:48;;;;;;;4.80;4.40;;;;;;;;;;5013759;28;20213;-51
2023/10/25 10:48:21;;;;;;;4.20;3.87;;;;;;;;;;5013946;28;20206;-51
2023/10/25 10:50:47;;;;;;;4.93;4.43;;;;;;;;;;5013721;28;20268;-52
2023/10/25 10:53:14;;;;;;;4.50;4.10;;;;;;;;;;5013752;28;20202;-51
2023/10/25 10:55:40;;;;;;;4.67;4.20;;;;;;;;;;5013514;28;20304;-51
2023/10/25 10:58:07;;;;;;;4.53;4.13;;;;;;;;;;5013686;28;20214;-51
2023/10/25 11:00:34;;;;;;;5.07;4.57;;;;;;;;;;5013698;28;20214;-51
2023/10/25 11:03:00;;;;;;;4.87;3.80;;;;;;;;;;5013437;28;20262;-52
2023/10/25 11:05:28;;;;;;;4.57;3.77;;;;;;;;;;5013757;28;20203;-51
2023/10/25 11:07:54;;;;;;;4.63;3.90;;;;;;;;;;5013342;28;20503;-52
2023/10/25 11:10:20;;;;;;;5.23;4.20;;;;;;;;;;5013121;28;20749;-51
2023/10/25 11:12:46;;;;;;;5.13;4.63;;;;;;;;;;5013575;28;20198;-52
2023/10/25 11:15:13;;;;;;;5.07;4.67;;;;;;;;;;5013193;28;20201;-52
2023/10/25 11:17:39;;;;;;;6.77;5.33;;;;;;;;;;5013196;28;20534;-52
2023/10/25 11:20:06;;;;;;;6.97;4.90;;;;;;;;;;5013203;28;20612;-52
2023/10/25 11:22:36;;;;;;;5.60;5.00;;;;;;;;;;5013438;28;20233;-52
2023/10/25 11:25:07;;;;;;;5.60;5.10;;;;;;;;;;5013012;28;20288;-52
2023/10/25 11:27:34;;;;;;;6.70;5.70;;;;;;;;;;5013243;28;20237;-52
2023/10/25 11:30:00;;;;;;;6.10;5.50;;;;;;;;;;5012980;28;20553;-52
2023/10/25 11:32:28;;;;;;;6.10;5.50;;;;;;;;;;5013040;28;20236;-52
2023/10/25 11:34:56;;;;;;;6.73;4.77;;;;;;;;;;5012880;28;20202;-52
2023/10/25 11:37:22;;;;;;;5.90;5.30;;;;;;;;;;5012816;28;20222;-52
2023/10/25 11:39:55;;;;;;;5.17;4.77;;;;;;;;;;5012903;28;20228;-52
2023/10/25 11:42:21;;;;;;;6.97;5.60;;;;;;;;;;5012426;28;20233;-52
2023/10/25 11:44:47;;;;;;;5.77;5.20;;;;;;;;;;5012647;28;20220;-52
2023/10/25 11:47:17;;;;;;;5.30;4.80;;;;;;;;;;5012622;28;20197;-52
2023/10/25 11:49:43;;;;;;;5.30;4.80;;;;;;;;;;5012888;28;20221;-52
2023/10/25 11:52:09;;;;;;;5.13;4.63;;;;;;;;;;5012645;28;20248;-52
2023/10/25 11:54:35;;;;;;;6.60;4.40;;;;;;;;;;5012651;28;20652;-52
2023/10/25 11:57:03;;;;;;;5.20;4.67;;;;;;;;;;5012457;28;20233;-52
2023/10/25 11:59:29;;;;;;;6.30;4.67;;;;;;;;;;4999378;28;20256;-52
2023/10/25 12:01:55;;;;;;;4.37;3.90;;;;;;;;;;4998895;28;20390;-52
2023/10/25 12:04:21;;;;;;;6.60;4.40;;;;;;;;;;4998929;28;20206;-52
2023/10/25 12:06:47;;;;;;;6.90;4.10;;;;;;;;;;5000786;28;20276;-52
2023/10/25 12:09:13;;;;;;;5.23;3.33;;;;;;;;;;5000544;28;20201;-52
2023/10/25 12:11:39;;;;;;;4.13;3.47;;;;;;;;;;4998638;28;20237;-52
2023/10/25 12:14:06;;;;;;;4.73;3.10;;;;;;;;;;5000412;28;20538;-52
2023/10/25 12:16:32;;;;;;;3.87;3.20;;;;;;;;;;4999211;28;20611;-52
2023/10/25 12:18:58;;;;;;;4.73;2.90;;;;;;;;;;5000089;28;20255;-52
2023/10/25 12:21:24;;;;;;;3.50;3.20;;;;;;;;;;5000265;28;20198;-52
2023/10/25 12:23:50;;;;;;;4.47;3.20;;;;;;;;;;5000130;28;20201;-52
2023/10/25 12:26:16;;;;;;;3.77;3.33;;;;;;;;;;4999160;28;20194;-52
2023/10/25 12:28:42;;;;;;;5.30;3.83;;;;;;;;;;4999489;28;20609;-52
2023/10/25 12:31:09;;;;;;;6.03;5.13;;;;;;;;;;4998569;28;21275;-52
2023/10/25 12:33:35;;;;;;;4.03;3.30;;;;;;;;;;4998702;28;20205;-52
2023/10/25 12:36:03;;;;;;;4.33;3.07;;;;;;;;;;4998522;28;20655;-52
2023/10/25 12:38:29;;;;;;;4.27;2.70;;;;;;;;;;4998777;28;20201;-51
2023/10/25 12:40:55;;;;;;;3.27;2.80;;;;;;;;;;4998514;28;20190;-51
2023/10/25 12:43:21;;;;;;;4.60;3.03;;;;;;;;;;4998354;28;20700;-52
2023/10/25 12:45:47;;;;;;;3.13;2.23;;;;;;;;;;4998583;28;20608;-52
2023/10/25 12:48:15;;;;;;;4.90;2.60;;;;;;;;;;5000111;28;20268;-51
2023/10/25 12:50:41;;;;;;;4.40;2.60;;;;;;;;;;4998364;28;20716;-52
2023/10/25 12:53:07;;;;;;;3.10;2.10;;;;;;;;;;4998285;28;20202;-51
2023/10/25 12:55:33;;;;;;;3.87;2.60;;;;;;;;;;4998018;28;20868;-51
2023/10/25 12:57:59;;;;;;;3.30;2.37;;;;;;;;;;4998495;28;20224;-51
2023/10/25 13:00:25;;;;;;;4.50;2.47;;;;;;;;;;4998678;28;20240;-52
2023/10/25 13:02:51;;;;;;;4.00;2.30;;;;;;;;;;4998191;28;20661;-51
2023/10/25 13:05:19;;;;;;;4.23;2.57;;;;;;;;;;5000103;28;20197;-51
2023/10/25 13:07:45;;;;;;;3.63;2.40;;;;;;;;;;5000312;28;20208;-51
2023/10/25 13:10:11;;;;;;;3.60;2.47;;;;;;;;;;4997817;28;20205;-51
2023/10/25 13:12:37;;;;;;;5.57;2.67;;;;;;;;;;4998148;28;20221;-52
2023/10/25 13:15:04;;;;;;;3.00;2.70;;;;;;;;;;4998034;28;20205;-51
2023/10/25 13:17:30;;;;;;;6.47;2.23;;;;;;;;;;4998101;28;20211;-51
2023/10/25 13:19:57;;;;;;;8.17;2.70;;;;;;;;;;4999510;28;20664;-52
2023/10/25 13:22:25;;;;;;;2.70;2.40;;;;;;;;;;4998750;28;20204;-51
2023/10/25 13:24:51;;;;;;;3.63;2.43;;;;;;;;;;4999555;28;20197;-52
2023/10/25 13:27:17;;;;;;;4.57;2.80;;;;;;;;;;4998305;28;20608;-51
2023/10/25 13:29:43;;;;;;;4.23;2.80;;;;;;;;;;4997915;28;20214;-51
2023/10/25 13:32:09;;;;;;;3.23;2.70;;;;;;;;;;4997626;28;20260;-52
2023/10/25 13:34:35;;;;;;;8.37;3.10;;;;;;;;;;4997744;28;20317;-52
2023/10/25 13:37:01;;;;;;;7.33;3.83;;;;;;;;;;4999428;28;20720;-52
2023/10/25 13:39:28;;;;;;;4.30;3.13;;;;;;;;;;4998151;28;21201;-54
2023/10/25 13:41:54;;;;;;;5.40;3.27;;;;;;;;;;4997840;28;20202;-53
2023/10/25 13:44:20;;;;;;;4.30;2.57;;;;;;;;;;4999787;28;20563;-51
2023/10/25 13:46:46;;;;;;;5.97;3.40;;;;;;;;;;4998016;28;20672;-51
2023/10/25 13:49:12;;;;;;;4.30;2.80;;;;;;;;;;4997159;28;20648;-47
2023/10/25 13:51:40;;;;;;;6.10;2.97;;;;;;;;;;5001396;28;20750;-50
2023/10/25 13:54:06;;;;;;;3.67;3.03;;;;;;;;;;4997796;28;20231;-53
2023/10/25 13:56:33;;;;;;;3.63;2.50;;;;;;;;;;4997882;28;20737;-52
2023/10/25 13:58:59;;;;;;;2.63;2.20;;;;;;;;;;4997964;28;20292;-49
2023/10/25 14:01:25;;;;;;;4.53;2.30;;;;;;;;;;4999151;28;20289;-51
2023/10/25 14:03:51;;;;;;;4.63;2.40;;;;;;;;;;4999022;28;20248;-51
2023/10/25 14:06:18;;;;;;;4.13;2.57;;;;;;;;;;4998636;28;20201;-49
2023/10/25 14:08:44;;;;;;;2.33;2.13;;;;;;;;;;5001124;28;20734;-50
2023/10/25 14:11:10;;;;;;;4.23;2.70;;;;;;;;;;5000955;28;21652;-50
2023/10/25 14:13:37;;;;;;;3.83;2.73;;;;;;;;;;5001138;28;20210;-51
2023/10/25 14:16:06;;;;;;;3.57;2.70;;;;;;;;;;5002864;28;20210;-51
2023/10/25 14:18:32;;;;;;;6.17;2.83;;;;;;;;;;5004358;28;20202;-51
2023/10/25 14:20:58;;;;;;;9.43;5.40;;;;;;;;;;5014418;28;20572;-51
2023/10/25 14:23:24;;;;;;;3.93;2.97;;;;;;;;;;5014389;28;20197;-51
2023/10/25 14:25:50;;;;;;;4.93;3.10;;;;;;;;;;5014196;28;20207;-48
2023/10/25 14:28:16;;;;;;;7.70;3.63;;;;;;;;;;5014196;28;20284;-50
2023/10/25 14:30:44;;;;;;;4.60;3.00;;;;;;;;;;5013997;28;20304;-49
2023/10/25 14:33:10;;;;;;;5.03;3.60;;;;;;;;;;5013954;28;20587;-50